createdAt,value
2019-05-11T00:01:11.990Z,41.10
2019-05-11T00:03:41.363Z,37.50
2019-05-11T00:06:10.723Z,49.13
2019-05-11T00:08:40.075Z,43.93
2019-05-11T00:11:09.473Z,39.27
2019-05-11T00:13:38.834Z,44.37
2019-05-11T00:16:08.198Z,43.43
2019-05-11T00:18:38.210Z,46.93
2019-05-11T00:21:07.568Z,47.47
2019-05-11T00:23:36.921Z,43.83
2019-05-11T00:26:06.278Z,40.97
2019-05-11T00:28:35.631Z,45.10
2019-05-11T00:31:05.184Z,42.53
2019-05-11T00:33:34.544Z,46.30
2019-05-11T00:36:03.981Z,44.07
2019-05-11T00:38:33.321Z,47.60
2019-05-11T00:41:02.672Z,43.37
2019-05-11T00:43:32.037Z,39.07
2019-05-11T00:46:01.392Z,45.83
2019-05-11T00:48:30.761Z,46.77
2019-05-11T00:51:01.176Z,47.30
2019-05-11T00:53:30.550Z,48.50
2019-05-11T00:55:59.899Z,45.00
2019-05-11T00:58:29.259Z,48.47
2019-05-11T01:00:58.612Z,44.17
2019-05-11T01:03:28.000Z,46.00
2019-05-11T01:05:57.355Z,47.73
2019-05-11T01:08:26.714Z,50.73
2019-05-11T01:10:56.071Z,45.87
2019-05-11T01:13:25.812Z,46.00
2019-05-11T01:15:55.165Z,51.07
2019-05-11T01:18:24.562Z,48.73
2019-05-11T01:20:53.942Z,46.13
2019-05-11T01:23:23.323Z,49.70
2019-05-11T01:25:52.696Z,50.07
2019-05-11T01:28:22.068Z,45.63
2019-05-11T01:30:51.443Z,51.27
2019-05-11T01:33:20.848Z,51.33
2019-05-11T01:35:51.194Z,50.93
2019-05-11T01:38:20.650Z,55.10
2019-05-11T01:40:58.912Z,47.60
2019-05-11T01:43:21.099Z,50.07
2019-05-11T01:45:50.457Z,49.73
2019-05-11T01:48:19.824Z,47.63
2019-05-11T01:50:49.176Z,48.03
2019-05-11T01:53:18.549Z,56.47
2019-05-11T01:55:47.928Z,50.67
2019-05-11T01:58:17.307Z,48.10
2019-05-11T02:00:46.670Z,49.33
2019-05-11T02:03:16.211Z,48.40
2019-05-11T02:05:45.601Z,48.90
2019-05-11T02:08:14.961Z,46.13
2019-05-11T02:10:44.394Z,46.90
2019-05-11T02:13:13.708Z,43.63
2019-05-11T02:15:43.073Z,47.67
2019-05-11T02:18:13.104Z,45.80
2019-05-11T02:20:42.501Z,48.70
2019-05-11T02:23:11.879Z,45.60
2019-05-11T02:25:41.225Z,47.70
2019-05-11T02:28:10.581Z,48.20
2019-05-11T02:30:39.957Z,47.53
2019-05-11T02:33:09.311Z,48.50
2019-05-11T02:35:38.724Z,51.50
2019-05-11T02:38:08.061Z,50.30
2019-05-11T02:40:37.458Z,49.07
2019-05-11T02:43:06.912Z,54.43
2019-05-11T02:45:40.989Z,55.87
2019-05-11T02:48:10.355Z,58.73
2019-05-11T02:50:39.779Z,52.63
2019-05-11T02:53:09.644Z,54.47
2019-05-11T02:55:39.551Z,56.73
2019-05-11T02:58:09.287Z,49.90
2019-05-11T03:00:43.979Z,52.17
2019-05-11T03:03:14.417Z,48.50
2019-05-11T03:05:43.769Z,52.47
2019-05-11T03:08:13.160Z,50.43
2019-05-11T03:10:42.517Z,57.27
2019-05-11T03:13:11.861Z,57.27
2019-05-11T03:15:41.291Z,57.93
2019-05-11T03:18:10.641Z,58.80
2019-05-11T03:20:40.010Z,68.20
2019-05-11T03:23:09.347Z,60.50
2019-05-11T03:25:38.748Z,64.03
2019-05-11T03:28:08.046Z,62.63
2019-05-11T03:30:37.420Z,63.33
2019-05-11T03:33:07.746Z,59.30
2019-05-11T03:35:38.114Z,69.77
2019-05-11T03:38:07.488Z,60.53
2019-05-11T03:40:36.850Z,65.63
2019-05-11T03:43:06.204Z,60.73
2019-05-11T03:45:35.566Z,63.30
2019-05-11T03:48:04.937Z,66.57
2019-05-11T03:50:34.311Z,66.33
2019-05-11T03:53:03.733Z,70.40
2019-05-11T03:55:33.111Z,60.23
2019-05-11T03:58:02.497Z,63.83
2019-05-11T04:00:31.866Z,71.17
2019-05-11T04:03:01.270Z,75.37
2019-05-11T04:05:30.757Z,68.00
2019-05-11T04:08:00.103Z,87.20
2019-05-11T04:10:29.478Z,80.67
2019-05-11T04:12:58.835Z,83.13
2019-05-11T04:15:28.192Z,75.20
2019-05-11T04:17:57.573Z,79.43
2019-05-11T04:20:26.931Z,76.63
2019-05-11T04:22:56.311Z,69.43
2019-05-11T04:25:25.687Z,94.50
2019-05-11T04:27:55.065Z,75.33
2019-05-11T04:30:24.419Z,86.97
2019-05-11T04:32:53.804Z,91.27
2019-05-11T04:35:23.202Z,68.37
2019-05-11T04:37:52.547Z,67.47
2019-05-11T04:40:21.947Z,88.77
2019-05-11T04:42:55.544Z,65.60
2019-05-11T04:45:22.439Z,79.47
2019-05-11T04:47:51.794Z,72.83
2019-05-11T04:50:21.163Z,69.90
2019-05-11T04:52:50.538Z,69.87
2019-05-11T04:55:20.940Z,81.10
2019-05-11T04:57:50.269Z,61.53
2019-05-11T05:00:20.217Z,71.93
2019-05-11T05:02:49.584Z,71.70
2019-05-11T05:05:18.946Z,65.87
2019-05-11T05:07:50.490Z,70.37
2019-05-11T05:10:21.935Z,76.50
2019-05-11T05:12:51.700Z,68.70
2019-05-11T05:15:21.525Z,79.37
2019-05-11T05:17:50.922Z,82.37
2019-05-11T05:20:20.268Z,78.87
2019-05-11T05:22:49.688Z,84.40
2019-05-11T05:25:19.053Z,81.37
2019-05-11T05:27:48.423Z,83.07
2019-05-11T05:30:17.865Z,83.17
2019-05-11T05:32:47.240Z,73.47
2019-05-11T05:35:16.755Z,81.00
2019-05-11T05:37:46.115Z,79.23
2019-05-11T05:40:16.618Z,71.47
2019-05-11T05:42:46.009Z,63.50
2019-05-11T05:45:15.363Z,76.70
2019-05-11T05:47:44.734Z,83.63
2019-05-11T05:50:14.585Z,73.13
2019-05-11T05:52:43.950Z,64.77
2019-05-11T05:55:13.670Z,81.57
2019-05-11T05:57:44.027Z,76.07
2019-05-11T06:00:13.633Z,72.30
2019-05-11T06:02:43.001Z,69.27
2019-05-11T06:05:12.538Z,72.63
2019-05-11T06:07:41.892Z,69.40
2019-05-11T06:10:11.602Z,74.40
2019-05-11T06:12:40.972Z,75.53
2019-05-11T06:15:10.478Z,80.43
2019-05-11T06:17:39.865Z,73.43
2019-05-11T06:20:10.075Z,66.40
2019-05-11T06:22:39.450Z,72.57
2019-05-11T06:25:08.981Z,78.10
2019-05-11T06:27:38.397Z,70.87
2019-05-11T06:30:08.301Z,67.40
2019-05-11T06:32:37.715Z,67.33
2019-05-11T06:35:08.695Z,69.63
2019-05-11T06:37:38.091Z,70.87
2019-05-11T06:40:07.981Z,74.03
2019-05-11T06:42:37.391Z,72.80
2019-05-11T06:45:07.196Z,75.73
2019-05-11T06:47:36.576Z,78.60
2019-05-11T06:50:07.201Z,72.67
2019-05-11T06:52:36.599Z,77.57
2019-05-11T06:55:06.437Z,77.80
2019-05-11T06:57:35.799Z,73.67
2019-05-11T07:00:06.147Z,74.70
2019-05-11T07:02:35.538Z,78.63
2019-05-11T07:05:06.774Z,75.40
2019-05-11T07:07:47.008Z,73.37
2019-05-11T07:10:07.869Z,75.63
2019-05-11T07:12:37.265Z,73.10
2019-05-11T07:15:07.203Z,77.20
2019-05-11T07:17:36.576Z,81.30
2019-05-11T07:20:08.028Z,75.30
2019-05-11T07:22:37.509Z,79.20
2019-05-11T07:25:07.590Z,83.70
2019-05-11T07:27:36.983Z,74.00
2019-05-11T07:30:07.934Z,83.10
2019-05-11T07:32:38.180Z,80.10
2019-05-11T07:35:09.031Z,82.07
2019-05-11T07:37:38.837Z,81.40
2019-05-11T07:40:09.104Z,85.73
2019-05-11T07:42:38.507Z,78.47
2019-05-11T07:45:09.324Z,80.90
2019-05-11T07:47:38.709Z,84.90
2019-05-11T07:50:09.005Z,77.20
2019-05-11T07:52:39.364Z,77.13
2019-05-11T07:55:08.893Z,78.00
2019-05-11T07:57:39.196Z,79.13
2019-05-11T08:00:10.312Z,77.87
2019-05-11T08:02:39.694Z,81.30
2019-05-11T08:05:09.410Z,79.17
2019-05-11T08:07:38.758Z,68.10
2019-05-11T08:10:08.545Z,69.47
2019-05-11T08:12:39.205Z,71.33
2019-05-11T08:15:13.225Z,68.03
2019-05-11T08:17:40.194Z,68.13
2019-05-11T08:20:09.890Z,65.27
2019-05-11T08:22:39.283Z,61.40
2019-05-11T08:25:09.359Z,59.17
2019-05-11T08:27:39.824Z,58.70
2019-05-11T08:30:13.841Z,62.10
2019-05-11T08:32:43.274Z,65.50
2019-05-11T08:35:12.794Z,64.90
2019-05-11T08:37:42.148Z,60.60
2019-05-11T08:40:15.539Z,63.80
2019-05-11T08:42:44.893Z,59.33
2019-05-11T08:45:20.150Z,59.60
2019-05-11T08:47:45.397Z,64.97
2019-05-11T08:50:15.619Z,58.37
2019-05-11T08:52:45.065Z,59.53
2019-05-11T08:55:14.563Z,57.33
2019-05-11T08:57:43.946Z,54.70
2019-05-11T09:00:14.371Z,51.30
2019-05-11T09:02:46.890Z,49.80
2019-05-11T09:05:14.881Z,50.87
2019-05-11T09:07:44.292Z,44.98
2019-05-11T09:10:14.708Z,43.53
2019-05-11T09:12:44.067Z,40.03
2019-05-11T09:15:28.081Z,40.80
2019-05-11T09:17:44.890Z,38.90
2019-05-11T09:20:14.610Z,38.05
2019-05-11T09:22:44.000Z,37.03
2019-05-11T09:25:13.506Z,38.00
2019-05-11T09:27:43.516Z,38.15
2019-05-11T09:30:13.312Z,38.60
2019-05-11T09:32:42.670Z,39.48
2019-05-11T09:35:13.659Z,38.98
2019-05-11T09:37:43.019Z,40.10
2019-05-11T09:40:12.536Z,36.45
2019-05-11T09:42:41.905Z,33.78
2019-05-11T09:45:11.531Z,34.45
2019-05-11T09:47:40.927Z,30.35
2019-05-11T09:50:10.452Z,28.97
2019-05-11T09:52:39.835Z,27.30
2019-05-11T09:55:09.310Z,26.80
2019-05-11T09:57:38.669Z,25.77
2019-05-11T10:00:08.883Z,23.98
2019-05-11T10:02:38.757Z,24.23
2019-05-11T10:05:08.898Z,24.40
2019-05-11T10:07:38.397Z,23.32
2019-05-11T10:10:09.513Z,24.12
2019-05-11T10:12:39.775Z,25.85
2019-05-11T10:15:09.408Z,23.83
2019-05-11T10:17:38.762Z,22.82
2019-05-11T10:20:09.520Z,24.55
2019-05-11T10:22:38.930Z,25.17
2019-05-11T10:25:09.151Z,26.35
2019-05-11T10:27:38.657Z,25.40
2019-05-11T10:30:09.243Z,27.30
2019-05-11T10:32:39.270Z,28.77
2019-05-11T10:35:08.891Z,27.70
2019-05-11T10:37:39.123Z,26.62
2019-05-11T10:40:09.982Z,26.75
2019-05-11T10:42:39.392Z,26.37
2019-05-11T10:45:09.286Z,24.72
2019-05-11T10:47:39.818Z,24.52
2019-05-11T10:50:09.638Z,25.30
2019-05-11T10:52:39.025Z,24.23
2019-05-11T10:55:09.348Z,22.90
2019-05-11T10:57:38.971Z,20.15
2019-05-11T11:00:09.773Z,19.80
2019-05-11T11:02:39.139Z,18.55
2019-05-11T11:05:08.664Z,16.30
2019-05-11T11:07:38.527Z,16.02
2019-05-11T11:10:09.031Z,16.27
2019-05-11T11:12:38.810Z,15.43
2019-05-11T11:15:09.938Z,16.52
2019-05-11T11:17:39.322Z,14.20
2019-05-11T11:20:09.715Z,14.00
2019-05-11T11:22:43.382Z,14.83
2019-05-11T11:25:10.501Z,15.23
2019-05-11T11:27:39.873Z,13.78
2019-05-11T11:30:10.539Z,14.00
2019-05-11T11:32:39.931Z,13.57
2019-05-11T11:35:09.518Z,13.95
2019-05-11T11:37:38.935Z,14.93
2019-05-11T11:40:08.729Z,14.70
2019-05-11T11:42:38.119Z,14.80
2019-05-11T11:45:09.594Z,14.23
2019-05-11T11:47:38.979Z,14.20
2019-05-11T11:50:09.474Z,14.50
2019-05-11T11:52:38.888Z,14.40
2019-05-11T11:55:09.692Z,12.60
2019-05-11T11:57:39.078Z,14.10
2019-05-11T12:00:09.351Z,11.83
2019-05-11T12:02:39.031Z,12.23
2019-05-11T12:05:08.897Z,11.68
2019-05-11T12:07:38.785Z,12.80
2019-05-11T12:10:09.035Z,13.00
2019-05-11T12:12:38.780Z,17.42
2019-05-11T12:15:09.001Z,12.03
2019-05-11T12:17:38.558Z,13.03
2019-05-11T12:20:08.978Z,13.53
2019-05-11T12:22:38.815Z,13.05
2019-05-11T12:25:09.039Z,11.57
2019-05-11T12:27:38.645Z,11.63
2019-05-11T12:30:09.474Z,10.98
2019-05-11T12:32:40.507Z,10.10
2019-05-11T12:35:09.926Z,11.63
2019-05-11T12:37:39.270Z,11.88
2019-05-11T12:40:10.187Z,9.60
2019-05-11T12:42:39.526Z,8.88
2019-05-11T12:45:10.430Z,11.68
2019-05-11T12:47:39.832Z,14.75
2019-05-11T12:50:10.127Z,11.22
2019-05-11T12:52:39.514Z,11.22
2019-05-11T12:55:09.425Z,10.78
2019-05-11T12:57:38.841Z,11.17
2019-05-11T13:00:08.846Z,16.63
2019-05-11T13:02:38.814Z,11.83
2019-05-11T13:05:08.884Z,12.50
2019-05-11T13:07:39.182Z,9.63
2019-05-11T13:10:09.220Z,12.85
2019-05-11T13:12:39.306Z,12.50
2019-05-11T13:15:09.116Z,10.47
2019-05-11T13:17:41.030Z,11.97
2019-05-11T13:20:12.777Z,11.70
2019-05-11T13:22:41.799Z,11.23
2019-05-11T13:25:11.270Z,9.97
2019-05-11T13:27:40.624Z,9.33
2019-05-11T13:30:10.448Z,11.17
2019-05-11T13:32:39.801Z,9.30
2019-05-11T13:35:09.400Z,13.87
2019-05-11T13:37:38.897Z,10.37
2019-05-11T13:40:08.957Z,7.97
2019-05-11T13:42:38.688Z,10.53
2019-05-11T13:45:08.701Z,12.07
2019-05-11T13:47:51.254Z,9.07
2019-05-11T13:50:09.376Z,8.70
2019-05-11T13:52:38.801Z,7.67
2019-05-11T13:55:08.245Z,8.90
2019-05-11T13:57:38.361Z,9.93
2019-05-11T14:00:08.698Z,9.50
2019-05-11T14:02:38.200Z,8.30
2019-05-11T14:05:09.034Z,8.93
2019-05-11T14:07:38.448Z,12.00
2019-05-11T14:10:09.251Z,10.23
2019-05-11T14:12:38.834Z,10.20
2019-05-11T14:15:09.389Z,6.50
2019-05-11T14:17:38.778Z,7.43
2019-05-11T14:20:09.235Z,7.90
2019-05-11T14:22:39.225Z,8.07
2019-05-11T14:25:09.129Z,9.60
2019-05-11T14:27:39.228Z,7.17
2019-05-11T14:30:09.600Z,7.42
2019-05-11T14:32:39.116Z,7.30
2019-05-11T14:35:12.047Z,6.80
2019-05-11T14:37:39.996Z,9.13
2019-05-11T14:40:09.527Z,6.70
2019-05-11T14:42:38.895Z,8.00
2019-05-11T14:45:09.383Z,7.47
2019-05-11T14:47:42.169Z,7.53
2019-05-11T14:50:09.964Z,8.28
2019-05-11T14:52:39.344Z,7.85
2019-05-11T14:55:10.332Z,9.35
2019-05-11T14:57:39.875Z,8.53
2019-05-11T15:00:09.473Z,7.28
2019-05-11T15:02:49.140Z,7.42
2019-05-11T15:05:20.434Z,6.17
2019-05-11T15:07:52.392Z,7.28
2019-05-11T15:10:21.163Z,10.73
2019-05-11T15:12:50.509Z,7.72
2019-05-11T15:15:20.131Z,9.25
2019-05-11T15:17:49.641Z,9.25
2019-05-11T15:20:18.992Z,7.92
2019-05-11T15:22:49.050Z,8.00
2019-05-11T15:25:19.700Z,8.30
2019-05-11T15:27:49.189Z,7.55
2019-05-11T15:30:19.114Z,6.83
2019-05-11T15:32:48.624Z,7.70
2019-05-11T15:35:18.768Z,5.62
2019-05-11T15:37:48.504Z,7.50
2019-05-11T15:40:19.177Z,7.00
2019-05-11T15:42:48.941Z,7.13
2019-05-11T15:45:20.275Z,5.37
2019-05-11T15:47:49.648Z,6.10
2019-05-11T15:50:19.705Z,7.73
2019-05-11T15:52:49.282Z,6.33
2019-05-11T15:55:19.483Z,7.80
2019-05-11T15:57:48.885Z,4.80
2019-05-11T16:00:19.083Z,5.55
2019-05-11T16:02:49.153Z,4.42
2019-05-11T16:05:19.526Z,6.30
2019-05-11T16:07:49.470Z,4.85
2019-05-11T16:10:19.239Z,5.83
2019-05-11T16:12:49.119Z,6.75
2019-05-11T16:15:19.539Z,7.28
2019-05-11T16:17:49.672Z,5.33
2019-05-11T16:20:19.278Z,5.47
2019-05-11T16:22:48.664Z,5.03
2019-05-11T16:25:19.749Z,5.00
2019-05-11T16:27:49.451Z,6.63
2019-05-11T16:30:21.653Z,5.75
2019-05-11T16:32:50.465Z,3.70
2019-05-11T16:35:20.077Z,6.55
2019-05-11T16:37:49.451Z,11.07
2019-05-11T16:40:20.831Z,6.17
2019-05-11T16:42:50.192Z,5.37
2019-05-11T16:45:21.615Z,5.87
2019-05-11T16:47:50.727Z,4.17
2019-05-11T16:50:20.272Z,6.83
2019-05-11T16:52:49.629Z,4.30
2019-05-11T16:55:18.976Z,5.23
2019-05-11T16:57:48.987Z,4.80
2019-05-11T17:00:18.932Z,5.90
2019-05-11T17:02:49.227Z,4.33
2019-05-11T17:05:26.272Z,3.77
2019-05-11T17:07:49.888Z,3.23
2019-05-11T17:10:20.353Z,6.30
2019-05-11T17:12:50.683Z,4.83
2019-05-11T17:15:20.044Z,3.60
2019-05-11T17:17:49.680Z,4.13
2019-05-11T17:20:19.435Z,3.90
2019-05-11T17:22:49.259Z,3.47
2019-05-11T17:25:19.586Z,6.37
2019-05-11T17:27:49.406Z,5.73
2019-05-11T17:30:20.052Z,4.20
2019-05-11T17:32:49.968Z,4.27
2019-05-11T17:35:19.495Z,6.53
2019-05-11T17:37:49.832Z,4.67
2019-05-11T17:40:23.423Z,3.97
2019-05-11T17:42:53.508Z,3.70
2019-05-11T17:45:21.730Z,3.30
2019-05-11T17:47:51.078Z,3.47
2019-05-11T17:50:20.427Z,3.80
2019-05-11T17:52:49.798Z,4.07
2019-05-11T17:55:20.135Z,4.20
2019-05-11T17:57:53.385Z,5.63
2019-05-11T18:00:20.737Z,6.70
2019-05-11T18:02:50.265Z,4.63
2019-05-11T18:05:19.637Z,5.00
2019-05-11T18:07:49.010Z,3.47
2019-05-11T18:10:18.600Z,4.70
2019-05-11T18:12:48.648Z,4.97
2019-05-11T18:15:19.192Z,3.97
2019-05-11T18:17:49.073Z,4.13
2019-05-11T18:20:21.765Z,4.83
2019-05-11T18:22:49.896Z,3.73
2019-05-11T18:25:19.268Z,4.07
2019-05-11T18:27:48.635Z,3.47
2019-05-11T18:30:18.458Z,7.40
2019-05-11T18:32:49.001Z,6.70
2019-05-11T18:35:19.919Z,4.27
2019-05-11T18:37:50.258Z,5.07
2019-05-11T18:40:19.631Z,4.33
2019-05-11T18:42:49.221Z,4.10
2019-05-11T18:45:19.216Z,4.13
2019-05-11T18:47:49.231Z,4.43
2019-05-11T18:50:29.788Z,3.10
2019-05-11T18:52:49.898Z,6.83
2019-05-11T18:55:19.407Z,5.87
2019-05-11T18:57:49.424Z,6.83
2019-05-11T19:00:19.745Z,6.37
2019-05-11T19:02:49.747Z,5.43
2019-05-11T19:05:19.317Z,3.63
2019-05-11T19:07:48.695Z,4.93
2019-05-11T19:10:18.120Z,6.13
2019-05-11T19:12:48.804Z,5.57
2019-05-11T19:15:19.076Z,4.20
2019-05-11T19:17:49.276Z,6.50
2019-05-11T19:20:18.776Z,6.90
2019-05-11T19:22:48.217Z,6.03
2019-05-11T19:25:18.193Z,6.17
2019-05-11T19:27:50.362Z,7.30
2019-05-11T19:30:20.143Z,9.80
2019-05-11T19:32:49.505Z,5.20
2019-05-11T19:35:21.178Z,4.93
2019-05-11T19:37:49.945Z,3.90
2019-05-11T19:40:19.296Z,3.13
2019-05-11T19:42:55.811Z,6.03
2019-05-11T19:45:25.376Z,6.80
2019-05-11T19:47:54.729Z,7.93
2019-05-11T19:50:24.086Z,5.47
2019-05-11T19:52:53.465Z,9.60
2019-05-11T19:55:22.838Z,7.17
2019-05-11T19:57:52.207Z,7.30
2019-05-11T20:00:21.841Z,5.43
2019-05-11T20:02:51.182Z,5.73
2019-05-11T20:05:20.553Z,5.30
2019-05-11T20:07:49.912Z,4.70
2019-05-11T20:10:19.378Z,5.63
2019-05-11T20:12:48.824Z,4.90
2019-05-11T20:15:19.142Z,4.37
2019-05-11T20:17:49.562Z,5.53
2019-05-11T20:20:19.072Z,4.87
2019-05-11T20:22:48.836Z,6.03
2019-05-11T20:25:19.123Z,8.47
2019-05-11T20:27:50.090Z,4.73
2019-05-11T20:30:19.620Z,6.37
2019-05-11T20:32:49.437Z,5.30
2019-05-11T20:35:18.973Z,5.57
2019-05-11T20:37:48.431Z,4.27
2019-05-11T20:40:19.196Z,5.17
2019-05-11T20:42:48.851Z,4.03
2019-05-11T20:45:18.719Z,6.70
2019-05-11T20:47:48.842Z,4.43
2019-05-11T20:50:18.759Z,4.37
2019-05-11T20:52:48.573Z,6.03
2019-05-11T20:55:18.470Z,3.60
2019-05-11T20:57:48.624Z,2.90
2019-05-11T21:00:19.329Z,5.20
2019-05-11T21:02:49.215Z,4.17
2019-05-11T21:05:18.730Z,3.87
2019-05-11T21:07:48.037Z,5.27
2019-05-11T21:10:17.669Z,6.67
2019-05-11T21:12:47.019Z,5.07
2019-05-11T21:15:16.560Z,5.80
2019-05-11T21:17:48.192Z,5.00
2019-05-11T21:20:18.128Z,4.93
2019-05-11T21:22:48.692Z,5.03
2019-05-11T21:25:18.415Z,6.90
2019-05-11T21:27:48.663Z,5.23
2019-05-11T21:30:18.649Z,5.10
2019-05-11T21:32:48.909Z,4.90
2019-05-11T21:35:19.142Z,5.23
2019-05-11T21:37:48.951Z,6.33
2019-05-11T21:40:18.415Z,4.10
2019-05-11T21:42:47.860Z,2.73
2019-05-11T21:45:18.327Z,4.80
2019-05-11T21:47:49.076Z,6.13
2019-05-11T21:50:19.477Z,5.13
2019-05-11T21:52:48.807Z,6.30
2019-05-11T21:55:19.123Z,7.93
2019-05-11T21:57:49.817Z,4.23
2019-05-11T22:00:20.151Z,4.60
2019-05-11T22:02:51.124Z,6.50
2019-05-11T22:05:21.056Z,3.73
2019-05-11T22:07:50.379Z,3.97
2019-05-11T22:10:19.808Z,3.50
2019-05-11T22:12:49.197Z,5.80
2019-05-11T22:15:18.515Z,8.30
2019-05-11T22:17:48.165Z,6.03
2019-05-11T22:20:18.419Z,3.73
2019-05-11T22:22:48.913Z,4.90
2019-05-11T22:25:18.553Z,4.97
2019-05-11T22:27:48.821Z,5.37
2019-05-11T22:30:18.787Z,6.17
2019-05-11T22:32:49.109Z,6.07
2019-05-11T22:35:18.635Z,5.87
2019-05-11T22:37:49.048Z,5.37
2019-05-11T22:40:18.789Z,6.77
2019-05-11T22:42:48.135Z,5.93
2019-05-11T22:45:18.674Z,7.43
2019-05-11T22:47:48.782Z,8.03
2019-05-11T22:50:18.848Z,3.13
2019-05-11T22:52:48.593Z,4.53
2019-05-11T22:55:19.194Z,4.93
2019-05-11T22:57:48.805Z,6.87
2019-05-11T23:00:21.267Z,5.30
2019-05-11T23:02:50.609Z,4.20
2019-05-11T23:05:19.983Z,6.37
2019-05-11T23:07:49.371Z,6.90
2019-05-11T23:10:18.710Z,4.93
2019-05-11T23:12:48.358Z,5.30
2019-05-11T23:15:19.184Z,4.47
2019-05-11T23:17:48.544Z,6.60
2019-05-11T23:20:18.119Z,3.77
2019-05-11T23:22:56.738Z,6.97
2019-05-11T23:25:19.642Z,4.93
2019-05-11T23:27:49.150Z,4.90
2019-05-11T23:30:19.799Z,8.33
2019-05-11T23:32:50.751Z,6.37
2019-05-11T23:35:20.136Z,5.93
2019-05-11T23:37:50.154Z,6.90
2019-05-11T23:40:19.984Z,4.37
2019-05-11T23:42:49.490Z,4.00
2019-05-11T23:45:19.414Z,6.67
2019-05-11T23:47:49.265Z,9.53
2019-05-11T23:50:19.336Z,6.43
2019-05-11T23:53:05.167Z,4.53
2019-05-11T23:55:20.192Z,4.93
2019-05-11T23:57:49.719Z,5.43
